Time;durP1;ratioP1;P1;durP2;ratioP2;P2;SDS_P1;SDS_P2;PMS_P1;PMS_P2;Temp;Humidity;BMP_temperature;BMP_pressure;BME280_temperature;BME280_humidity;BME280_pressure;Samples;Min_cycle;Max_cycle;Signal;HPM_P1;HPM_P2
2022/08/13 00:02:16;;;;;;;6.72;2.17;;;23.00;77.20;;;;;;4960880;28;20455;-46
2022/08/13 00:04:56;;;;;;;5.88;2.67;;;23.10;77.20;;;;;;4944165;28;20092;-47
2022/08/13 00:07:23;;;;;;;4.03;2.30;;;22.90;77.90;;;;;;4961546;28;20090;-47
2022/08/13 00:09:50;;;;;;;3.80;2.05;;;22.90;77.60;;;;;;4960693;28;20085;-47
2022/08/13 00:15:28;;;;;;;5.55;2.40;;;22.80;78.20;;;;;;4961960;28;20058;-45
2022/08/13 00:17:59;;;;;;;4.75;2.42;;;22.90;78.30;;;;;;4961890;28;20397;-46
2022/08/13 00:20:30;;;;;;;4.75;2.47;;;22.80;77.90;;;;;;4961930;28;20038;-48
2022/08/13 00:22:58;;;;;;;7.38;2.88;;;22.80;78.10;;;;;;4960945;28;20525;-47
2022/08/13 00:25:25;;;;;;;4.10;2.53;;;22.70;78.20;;;;;;4961884;28;20610;-45
2022/08/13 00:27:56;;;;;;;5.50;2.30;;;22.80;78.30;;;;;;4961941;28;20113;-45
2022/08/13 00:30:26;;;;;;;6.43;2.60;;;22.80;78.30;;;;;;4962186;28;20027;-43
2022/08/13 00:32:52;;;;;;;4.47;2.40;;;22.60;78.30;;;;;;4960969;28;20037;-45
2022/08/13 00:35:18;;;;;;;5.35;2.30;;;22.60;78.20;;;;;;4962068;28;20045;-45
2022/08/13 00:37:44;;;;;;;5.63;2.08;;;22.60;78.60;;;;;;4960744;28;20431;-47
2022/08/13 00:40:10;;;;;;;5.18;2.38;;;22.50;78.40;;;;;;4961273;28;20039;-43
2022/08/13 00:42:40;;;;;;;5.72;2.33;;;22.50;78.70;;;;;;4961412;28;20403;-46
2022/08/13 00:45:08;;;;;;;4.53;1.90;;;22.30;79.00;;;;;;4961070;28;20110;-43
2022/08/13 00:50:19;;;;;;;5.38;2.45;;;22.40;78.90;;;;;;4961550;28;20058;-44
2022/08/13 00:52:45;;;;;;;4.28;2.30;;;22.20;79.30;;;;;;4961483;28;20039;-47
2022/08/13 00:55:16;;;;;;;9.18;2.75;;;22.10;79.40;;;;;;4962507;28;20038;-44
2022/08/13 00:57:44;;;;;;;5.60;2.40;;;22.20;79.50;;;;;;4960172;28;20043;-44
2022/08/13 01:00:15;;;;;;;6.13;2.42;;;22.10;79.40;;;;;;4961082;28;20517;-48
2022/08/13 01:02:43;;;;;;;5.03;2.47;;;22.00;79.50;;;;;;4958163;28;20043;-46
2022/08/13 01:05:09;;;;;;;4.15;2.30;;;22.00;79.20;;;;;;4961616;28;20038;-45
2022/08/13 01:07:41;;;;;;;5.05;2.38;;;21.90;79.60;;;;;;4960915;28;20058;-44
2022/08/13 01:10:09;;;;;;;5.72;2.40;;;21.90;79.90;;;;;;4942906;28;20130;-43
2022/08/13 01:12:36;;;;;;;4.28;2.50;;;21.90;79.80;;;;;;4961868;28;20754;-42
2022/08/13 01:15:04;;;;;;;6.35;2.33;;;21.90;79.70;;;;;;4964677;28;20041;-43
2022/08/13 01:17:30;;;;;;;5.15;2.70;;;21.90;79.80;;;;;;4965084;28;20387;-43
2022/08/13 01:19:59;;;;;;;8.10;2.58;;;21.80;80.10;;;;;;4965184;28;20050;-46
2022/08/13 01:22:26;;;;;;;4.93;2.70;;;21.80;80.10;;;;;;4964209;28;20129;-43
2022/08/13 01:24:52;;;;;;;4.50;2.50;;;21.70;80.40;;;;;;4963362;28;20050;-47
2022/08/13 01:27:22;;;;;;;4.45;2.47;;;21.70;80.60;;;;;;4964780;28;20069;-44
2022/08/13 01:29:50;;;;;;;5.57;2.63;;;21.60;80.50;;;;;;4964797;28;20522;-45
2022/08/13 01:32:19;;;;;;;5.63;2.55;;;21.60;80.70;;;;;;4963986;28;20030;-47
2022/08/13 01:34:47;;;;;;;5.53;2.40;;;21.70;80.40;;;;;;4962661;28;20039;-47
2022/08/13 01:37:14;;;;;;;6.00;2.53;;;21.60;80.20;;;;;;4963814;28;20038;-47
2022/08/13 01:39:40;;;;;;;5.53;2.60;;;21.50;80.50;;;;;;4963275;28;20580;-44
2022/08/13 01:42:17;;;;;;;4.85;2.47;;;21.50;80.70;;;;;;4964172;28;20510;-49
2022/08/13 01:44:45;;;;;;;4.15;2.33;;;21.50;80.70;;;;;;4964773;28;20367;-45
2022/08/13 01:50:38;;;;;;;5.18;2.30;;;21.40;80.80;;;;;;4963755;28;20113;-46
2022/08/13 01:52:47;;;;;;;5.88;2.45;;;21.30;81.10;;;;;;4953246;28;22602;-46
2022/08/13 01:55:13;;;;;;;4.03;2.40;;;21.20;81.30;;;;;;4965143;28;20062;-44
2022/08/13 01:57:40;;;;;;;6.72;2.90;;;21.20;81.50;;;;;;4964274;28;20090;-45
2022/08/13 02:00:09;;;;;;;6.68;2.50;;;21.20;81.70;;;;;;4964186;28;20038;-46
2022/08/13 02:02:36;;;;;;;4.82;2.40;;;21.10;81.30;;;;;;4964199;28;20053;-45
2022/08/13 02:05:03;;;;;;;8.40;2.65;;;21.10;81.80;;;;;;4964125;28;20077;-46
2022/08/13 02:07:30;;;;;;;6.90;3.30;;;21.10;81.60;;;;;;4963674;28;20462;-43
2022/08/13 02:09:56;;;;;;;4.20;2.55;;;21.10;81.50;;;;;;4961726;28;20039;-47
2022/08/13 02:12:22;;;;;;;5.53;2.28;;;21.00;81.70;;;;;;4963460;28;20041;-45
2022/08/13 02:14:47;;;;;;;5.65;2.33;;;21.10;81.70;;;;;;4962976;28;20066;-44
2022/08/13 02:17:25;;;;;;;4.93;2.72;;;20.90;82.00;;;;;;4948136;28;20034;-45
2022/08/13 02:19:53;;;;;;;4.43;2.40;;;20.80;81.70;;;;;;4964451;28;20074;-42
2022/08/13 02:22:20;;;;;;;4.85;2.30;;;20.80;81.90;;;;;;4962972;28;20070;-43
2022/08/13 02:24:55;;;;;;;6.70;2.03;;;20.70;81.90;;;;;;4962961;28;20034;-44
2022/08/13 02:27:24;;;;;;;7.40;2.60;;;21.20;82.10;;;;;;4963227;28;20042;-45
2022/08/13 02:29:51;;;;;;;4.88;2.45;;;20.80;81.70;;;;;;4963096;28;20439;-45
2022/08/13 02:32:18;;;;;;;4.63;2.50;;;20.70;81.40;;;;;;4962297;28;20430;-46
2022/08/13 02:34:50;;;;;;;4.13;2.20;;;20.70;81.30;;;;;;4963557;28;20293;-44
2022/08/13 02:37:21;;;;;;;5.28;2.42;;;20.70;81.70;;;;;;4964723;28;20475;-46
2022/08/13 02:39:51;;;;;;;5.68;2.58;;;20.60;81.90;;;;;;4963283;28;20037;-46
2022/08/13 02:42:19;;;;;;;3.70;2.10;;;20.60;81.80;;;;;;4963415;28;20058;-43
2022/08/13 02:44:47;;;;;;;6.50;2.70;;;20.50;82.10;;;;;;4964048;28;20081;-43
2022/08/13 02:47:18;;;;;;;6.28;2.60;;;20.40;82.10;;;;;;4962784;28;20047;-45
2022/08/13 02:49:44;;;;;;;5.38;2.55;;;20.50;82.10;;;;;;4961992;28;20059;-44
2022/08/13 02:52:10;;;;;;;4.88;2.65;;;20.40;82.30;;;;;;4961826;28;20042;-43
2022/08/13 02:54:44;;;;;;;4.68;2.20;;;20.40;82.50;;;;;;4963144;28;20045;-44
2022/08/13 02:57:10;;;;;;;5.15;2.25;;;20.40;82.60;;;;;;4962718;28;20438;-43
2022/08/13 02:59:36;;;;;;;4.70;2.13;;;20.30;82.50;;;;;;4963446;28;20070;-44
2022/08/13 03:02:04;;;;;;;4.80;2.40;;;20.20;82.90;;;;;;4962162;28;20500;-44
2022/08/13 03:04:30;;;;;;;4.75;2.50;;;20.10;83.20;;;;;;4963239;28;20053;-47
2022/08/13 03:06:57;;;;;;;4.97;2.33;;;20.10;83.40;;;;;;4963645;28;20071;-45
2022/08/13 03:09:24;;;;;;;4.95;2.20;;;20.00;83.50;;;;;;4944161;28;20465;-45
2022/08/13 03:11:50;;;;;;;4.28;2.50;;;20.00;83.40;;;;;;4962609;28;20483;-46
2022/08/13 03:14:17;;;;;;;5.65;2.40;;;20.00;83.50;;;;;;4963937;28;20042;-44
2022/08/13 03:16:44;;;;;;;4.05;2.20;;;19.90;83.60;;;;;;4962330;28;20178;-45
2022/08/13 03:19:10;;;;;;;5.78;2.42;;;19.90;83.60;;;;;;4962725;28;20043;-45
2022/08/13 03:21:37;;;;;;;5.28;2.72;;;20.00;83.90;;;;;;4962911;28;20051;-45
2022/08/13 03:24:04;;;;;;;6.43;2.90;;;20.00;83.70;;;;;;4962515;28;20049;-44
2022/08/13 03:26:31;;;;;;;5.13;2.55;;;19.90;83.90;;;;;;4962432;28;20046;-47
2022/08/13 03:28:58;;;;;;;8.15;2.63;;;20.00;83.60;;;;;;4945176;28;20057;-43
2022/08/13 03:31:24;;;;;;;5.18;2.70;;;19.80;83.70;;;;;;4962221;28;20034;-44
2022/08/13 03:33:52;;;;;;;4.93;2.90;;;19.80;83.90;;;;;;4962804;28;20124;-45
2022/08/13 03:36:20;;;;;;;6.72;2.72;;;19.70;83.80;;;;;;4961527;28;20046;-46
2022/08/13 03:38:46;;;;;;;4.47;2.38;;;19.80;83.90;;;;;;4962516;28;20047;-42
2022/08/13 03:41:14;;;;;;;5.28;3.00;;;19.70;83.90;;;;;;4943844;28;20039;-43
2022/08/13 03:43:47;;;;;;;5.55;2.85;;;19.70;83.90;;;;;;4962449;28;20491;-47
2022/08/13 03:46:24;;;;;;;6.93;2.80;;;19.60;84.10;;;;;;4962320;28;20046;-43
2022/08/13 03:48:51;;;;;;;5.53;2.60;;;19.60;84.00;;;;;;4960902;28;20121;-44
2022/08/13 03:51:20;;;;;;;6.75;2.80;;;19.60;84.00;;;;;;4962208;28;20119;-48
2022/08/13 03:53:46;;;;;;;4.28;2.65;;;19.60;84.20;;;;;;4961464;28;20035;-45
2022/08/13 03:56:13;;;;;;;5.05;2.40;;;19.50;84.10;;;;;;4962031;28;20427;-45
2022/08/13 03:58:39;;;;;;;5.65;2.35;;;19.50;84.20;;;;;;4960406;28;20046;-44
2022/08/13 04:01:06;;;;;;;6.43;2.65;;;19.50;84.00;;;;;;4962147;28;20041;-43
2022/08/13 04:03:37;;;;;;;5.60;2.60;;;19.40;84.00;;;;;;4962465;28;20043;-44
2022/08/13 04:06:09;;;;;;;5.57;2.58;;;19.50;84.20;;;;;;4961293;28;20525;-47
2022/08/13 04:08:37;;;;;;;5.57;2.72;;;19.50;84.40;;;;;;4960306;28;20049;-46
2022/08/13 04:11:06;;;;;;;4.38;2.42;;;19.40;84.30;;;;;;4960645;28;20113;-44
2022/08/13 04:13:38;;;;;;;6.05;2.50;;;19.30;84.50;;;;;;4962127;28;20383;-43
2022/08/13 04:16:06;;;;;;;5.60;2.70;;;19.30;84.40;;;;;;4961488;28;20035;-44
2022/08/13 04:18:36;;;;;;;6.22;2.47;;;19.40;84.60;;;;;;4944288;28;20043;-45
2022/08/13 04:21:08;;;;;;;5.07;2.70;;;19.40;84.60;;;;;;4960897;28;20264;-46
2022/08/13 04:23:36;;;;;;;6.22;2.53;;;19.30;84.60;;;;;;4962043;28;20070;-47
2022/08/13 04:26:02;;;;;;;6.35;2.40;;;19.20;84.60;;;;;;4961414;28;20277;-44
2022/08/13 04:28:27;;;;;;;6.13;2.50;;;19.30;84.50;;;;;;4944341;28;20419;-43
2022/08/13 04:30:53;;;;;;;4.45;2.22;;;19.20;84.70;;;;;;4962706;28;20035;-46
2022/08/13 04:33:19;;;;;;;6.80;2.67;;;19.20;84.80;;;;;;4960097;28;20042;-46
2022/08/13 04:35:45;;;;;;;5.07;2.53;;;19.10;85.00;;;;;;4960596;28;20027;-44
2022/08/13 04:38:13;;;;;;;5.88;2.58;;;19.10;84.90;;;;;;4961512;28;20034;-46
2022/08/13 04:40:40;;;;;;;4.75;2.30;;;19.10;85.00;;;;;;4961922;28;20070;-43
2022/08/13 04:43:07;;;;;;;5.43;2.45;;;19.10;85.00;;;;;;4962627;28;20093;-44
2022/08/13 04:45:34;;;;;;;4.97;2.63;;;19.20;85.10;;;;;;4961240;28;20475;-45
2022/08/13 04:48:07;;;;;;;7.10;2.50;;;19.10;85.20;;;;;;4964457;28;20109;-45
2022/08/13 04:50:34;;;;;;;3.47;2.13;;;19.20;85.10;;;;;;4964621;28;20042;-47
2022/08/13 04:53:06;;;;;;;5.40;2.53;;;19.10;85.00;;;;;;4965354;28;20121;-43
2022/08/13 04:55:32;;;;;;;4.35;2.40;;;19.10;85.30;;;;;;4964261;28;20082;-46
2022/08/13 04:57:58;;;;;;;5.47;2.78;;;19.20;85.20;;;;;;4965691;28;20047;-42
2022/08/13 05:00:31;;;;;;;5.50;2.63;;;19.10;85.40;;;;;;4965355;28;20054;-43
2022/08/13 05:03:05;;;;;;;7.78;2.60;;;19.10;85.50;;;;;;4965671;28;20038;-46
2022/08/13 05:05:31;;;;;;;5.28;2.72;;;19.10;85.40;;;;;;4964593;28;20399;-42
2022/08/13 05:07:57;;;;;;;5.78;2.70;;;19.20;85.50;;;;;;4947527;28;20046;-43
2022/08/13 05:10:23;;;;;;;6.03;2.53;;;19.10;85.50;;;;;;4963364;28;20081;-46
2022/08/13 05:12:48;;;;;;;5.57;2.75;;;19.10;85.70;;;;;;4965239;28;20050;-45
2022/08/13 05:15:14;;;;;;;4.13;2.33;;;19.10;85.80;;;;;;4964958;28;20039;-46
2022/08/13 05:17:41;;;;;;;5.35;2.92;;;19.10;85.80;;;;;;4965551;28;20023;-44
2022/08/13 05:20:15;;;;;;;6.70;2.70;;;19.10;86.40;;;;;;4964246;28;20034;-42
2022/08/13 05:22:41;;;;;;;4.50;2.60;;;19.20;86.10;;;;;;4964626;28;20189;-43
2022/08/13 05:25:08;;;;;;;6.28;2.95;;;19.20;86.10;;;;;;4964980;28;20050;-47
2022/08/13 05:27:33;;;;;;;4.60;2.63;;;19.20;86.00;;;;;;4964222;28;20066;-44
2022/08/13 05:30:00;;;;;;;5.97;2.70;;;19.20;86.30;;;;;;4965226;28;20136;-43
2022/08/13 05:32:27;;;;;;;3.97;2.50;;;19.30;86.30;;;;;;4964413;28;20058;-45
2022/08/13 05:34:53;;;;;;;4.88;2.83;;;19.30;86.30;;;;;;4963198;28;20039;-45
2022/08/13 05:37:19;;;;;;;5.00;2.53;;;19.40;86.00;;;;;;4945929;28;20470;-43
2022/08/13 05:39:46;;;;;;;5.50;2.80;;;19.50;85.90;;;;;;4964673;28;20051;-43
2022/08/13 05:42:13;;;;;;;5.72;2.78;;;19.60;86.00;;;;;;4945522;28;20051;-44
2022/08/13 05:44:39;;;;;;;4.40;2.33;;;19.80;85.60;;;;;;4963165;28;20611;-44
2022/08/13 05:47:05;;;;;;;5.18;2.20;;;19.90;85.40;;;;;;4963994;28;20042;-42
2022/08/13 05:49:33;;;;;;;12.13;2.67;;;19.90;85.10;;;;;;4963994;28;20050;-45
2022/08/13 05:52:01;;;;;;;4.25;2.45;;;20.00;84.80;;;;;;4964786;28;20173;-44
2022/08/13 05:54:27;;;;;;;6.75;2.60;;;20.00;85.40;;;;;;4963229;28;20050;-43
2022/08/13 05:56:52;;;;;;;3.70;2.30;;;20.10;84.90;;;;;;4964066;28;20531;-43
2022/08/13 06:05:05;;;;;;;5.15;2.20;;;20.20;85.20;;;;;;4925294;29;20048;-44
2022/08/13 06:07:31;;;;;;;6.07;2.40;;;20.10;85.00;;;;;;4940298;28;20069;-42
2022/08/13 06:09:57;;;;;;;6.28;2.30;;;20.20;85.00;;;;;;4963533;28;20485;-48
2022/08/13 06:12:24;;;;;;;4.57;2.40;;;20.30;85.10;;;;;;4962660;28;20039;-44
2022/08/13 06:14:51;;;;;;;4.75;2.20;;;20.30;85.30;;;;;;4963737;28;20055;-43
2022/08/13 06:17:18;;;;;;;4.72;2.00;;;20.40;84.80;;;;;;4962740;28;20034;-45
2022/08/13 06:19:44;;;;;;;4.57;1.80;;;20.50;85.20;;;;;;4962983;28;20043;-45
2022/08/13 06:22:11;;;;;;;5.20;2.67;;;20.50;84.70;;;;;;4964026;28;20193;-46
2022/08/13 06:24:37;;;;;;;4.78;2.30;;;20.50;84.60;;;;;;4962911;28;20043;-43
2022/08/13 06:27:07;;;;;;;4.97;2.00;;;20.60;84.40;;;;;;4962655;28;20502;-42
2022/08/13 06:29:35;;;;;;;5.18;2.05;;;20.70;84.30;;;;;;4963050;28;20617;-45
2022/08/13 06:32:03;;;;;;;4.18;1.95;;;20.70;84.30;;;;;;4962479;28;20039;-45
2022/08/13 06:34:35;;;;;;;5.70;2.08;;;20.80;84.20;;;;;;4963629;28;20538;-42
2022/08/13 06:37:08;;;;;;;5.13;2.00;;;20.80;84.10;;;;;;4963227;28;20549;-43
2022/08/13 06:39:35;;;;;;;4.38;1.88;;;20.90;83.70;;;;;;4962268;28;20031;-45
2022/08/13 06:42:03;;;;;;;6.45;1.70;;;21.00;83.30;;;;;;4962543;28;20517;-43
2022/08/13 06:44:33;;;;;;;4.13;1.85;;;21.00;83.10;;;;;;4963379;28;20656;-43
2022/08/13 06:47:03;;;;;;;3.50;1.73;;;21.10;83.40;;;;;;4963440;28;20458;-44
2022/08/13 06:49:33;;;;;;;4.47;1.92;;;21.20;82.80;;;;;;4962612;28;20080;-44
2022/08/13 06:52:00;;;;;;;4.80;1.65;;;21.30;82.80;;;;;;4961328;28;20035;-45
2022/08/13 06:54:27;;;;;;;3.67;1.63;;;21.30;83.00;;;;;;4962837;28;20095;-45
2022/08/13 06:56:54;;;;;;;3.97;1.70;;;21.40;82.60;;;;;;4962471;28;20154;-46
2022/08/13 06:59:23;;;;;;;5.20;1.80;;;21.50;82.80;;;;;;4961556;28;20479;-46
2022/08/13 07:01:57;;;;;;;4.03;1.75;;;21.60;83.00;;;;;;4960866;28;20505;-47
2022/08/13 07:04:24;;;;;;;5.55;2.15;;;21.60;83.00;;;;;;4961352;28;20116;-43
2022/08/13 07:06:51;;;;;;;4.10;1.77;;;21.70;83.30;;;;;;4962584;28;20146;-44
2022/08/13 07:09:18;;;;;;;3.30;1.52;;;21.80;83.10;;;;;;4961894;28;20110;-48
2022/08/13 07:11:45;;;;;;;4.88;1.60;;;21.80;83.10;;;;;;4961272;28;20432;-46
2022/08/13 07:14:13;;;;;;;5.15;1.50;;;21.90;83.30;;;;;;4963083;28;20109;-47
2022/08/13 07:16:44;;;;;;;4.07;1.48;;;22.10;82.90;;;;;;4961408;28;20454;-45
2022/08/13 07:19:11;;;;;;;4.28;1.30;;;22.10;83.00;;;;;;4959441;28;20034;-43
2022/08/13 07:21:39;;;;;;;2.63;1.35;;;22.30;82.50;;;;;;4958707;28;20593;-44
2022/08/13 07:24:06;;;;;;;6.70;1.55;;;22.30;82.40;;;;;;4961182;28;20047;-47
2022/08/13 07:26:36;;;;;;;6.80;1.40;;;22.40;82.80;;;;;;4960143;28;20368;-46
2022/08/13 07:29:05;;;;;;;5.38;1.70;;;22.60;81.60;;;;;;4958462;28;20118;-45
2022/08/13 07:31:33;;;;;;;3.20;1.38;;;22.60;81.70;;;;;;4962562;28;20517;-45
2022/08/13 07:34:04;;;;;;;4.18;1.60;;;22.70;81.10;;;;;;4961122;28;20399;-43
2022/08/13 07:36:36;;;;;;;5.70;1.80;;;22.80;81.00;;;;;;4960503;28;20031;-43
2022/08/13 07:39:09;;;;;;;11.88;1.60;;;22.90;80.80;;;;;;4959884;28;20494;-47
2022/08/13 07:41:41;;;;;;;3.67;1.35;;;23.00;80.60;;;;;;4961211;28;20144;-49
2022/08/13 07:44:12;;;;;;;5.20;1.40;;;23.20;81.10;;;;;;4961322;28;20060;-44
2022/08/13 07:46:43;;;;;;;5.10;1.80;;;23.20;80.90;;;;;;4960247;28;20043;-44
2022/08/13 07:49:10;;;;;;;3.63;1.30;;;23.30;81.20;;;;;;4962155;28;20431;-45
2022/08/13 07:51:37;;;;;;;4.55;1.50;;;23.40;81.20;;;;;;4962632;28;20031;-44
2022/08/13 07:54:06;;;;;;;2.95;1.27;;;23.50;80.00;;;;;;4961393;28;20035;-44
2022/08/13 07:56:33;;;;;;;5.25;1.42;;;23.60;80.70;;;;;;4963296;28;20049;-44
2022/08/13 07:59:03;;;;;;;2.58;1.08;;;23.60;80.10;;;;;;4960866;28;20035;-46
2022/08/13 08:01:36;;;;;;;3.08;1.20;;;23.70;80.00;;;;;;4962275;28;20510;-43
2022/08/13 08:04:04;;;;;;;4.50;1.30;;;23.80;78.80;;;;;;4944241;28;20046;-45
2022/08/13 08:06:30;;;;;;;2.67;1.15;;;23.90;79.60;;;;;;4960512;28;20070;-46
2022/08/13 08:08:57;;;;;;;4.95;1.30;;;23.90;80.00;;;;;;4962488;28;20393;-47
2022/08/13 08:14:10;;;;;;;4.32;1.38;;;24.20;79.00;;;;;;4961289;28;20054;-46
2022/08/13 08:16:37;;;;;;;6.28;1.42;;;24.30;78.20;;;;;;4961760;28;20141;-46
2022/08/13 08:19:05;;;;;;;3.42;1.08;;;24.40;79.20;;;;;;4960830;28;20138;-43
2022/08/13 08:21:35;;;;;;;5.20;1.30;;;24.40;78.80;;;;;;4960837;28;20055;-46
2022/08/13 08:24:03;;;;;;;3.08;1.15;;;24.60;78.70;;;;;;4962159;28;20080;-43
2022/08/13 08:26:32;;;;;;;4.65;1.10;;;24.70;78.20;;;;;;4961858;28;20235;-45
2022/08/13 08:29:04;;;;;;;3.00;1.40;;;24.70;77.90;;;;;;4961356;28;20045;-45
2022/08/13 08:31:33;;;;;;;3.33;1.25;;;24.80;78.60;;;;;;4961938;28;20055;-45
2022/08/13 08:34:01;;;;;;;2.78;1.30;;;24.90;78.80;;;;;;4962143;28;20043;-46
2022/08/13 08:36:28;;;;;;;2.70;1.10;;;25.00;77.90;;;;;;4962467;28;20491;-44
2022/08/13 08:44:32;;;;;;;4.50;1.27;;;25.30;76.50;;;;;;4954291;28;20053;-47
2022/08/13 08:47:00;;;;;;;3.35;1.27;;;25.30;77.60;;;;;;4952889;28;20101;-48
2022/08/13 08:49:26;;;;;;;3.33;1.20;;;25.40;76.20;;;;;;4951312;28;20089;-46
2022/08/13 08:51:53;;;;;;;3.90;1.20;;;25.60;76.80;;;;;;4953837;28;20090;-44
2022/08/13 08:54:22;;;;;;;6.70;1.10;;;25.70;75.40;;;;;;4955187;28;20050;-47
2022/08/13 08:56:49;;;;;;;2.88;1.25;;;25.70;75.80;;;;;;4955409;28;20041;-43
2022/08/13 08:59:15;;;;;;;4.30;1.10;;;25.70;75.80;;;;;;4954946;28;20117;-46
2022/08/13 09:01:42;;;;;;;3.75;1.20;;;25.90;75.40;;;;;;4954791;28;20372;-48
2022/08/13 09:04:10;;;;;;;2.67;1.20;;;26.10;75.40;;;;;;4956043;28;20042;-47
2022/08/13 09:06:36;;;;;;;2.35;1.00;;;26.20;74.00;;;;;;4955211;28;20055;-43
2022/08/13 09:09:06;;;;;;;5.40;1.20;;;26.40;74.60;;;;;;4957190;28;20073;-47
2022/08/13 09:11:35;;;;;;;3.47;1.20;;;26.60;73.60;;;;;;4959984;28;20074;-47
2022/08/13 09:14:05;;;;;;;2.95;1.23;;;26.50;73.60;;;;;;4962298;28;20122;-48
2022/08/13 09:16:31;;;;;;;3.85;1.33;;;26.90;74.10;;;;;;4960560;28;20074;-47
2022/08/13 09:18:58;;;;;;;2.65;1.00;;;27.20;73.80;;;;;;4959662;28;20530;-47
2022/08/13 09:21:25;;;;;;;7.40;1.13;;;27.20;73.80;;;;;;4956893;28;20596;-46
2022/08/13 09:23:52;;;;;;;3.97;1.20;;;27.40;73.10;;;;;;4940027;28;20491;-45
2022/08/13 09:26:20;;;;;;;2.30;1.00;;;27.70;72.20;;;;;;4959619;28;20054;-47
2022/08/13 09:28:46;;;;;;;2.50;1.00;;;27.90;71.80;;;;;;4959266;28;20054;-46
2022/08/13 09:31:12;;;;;;;3.88;1.10;;;28.00;71.40;;;;;;4960738;28;20039;-48
2022/08/13 09:33:39;;;;;;;3.50;1.42;;;28.20;70.20;;;;;;4959787;28;20035;-46
2022/08/13 09:36:11;;;;;;;3.92;1.10;;;28.20;70.70;;;;;;4964513;28;20038;-47
2022/08/13 09:38:37;;;;;;;2.40;1.10;;;28.40;69.10;;;;;;4963348;28;20552;-46
2022/08/13 09:41:21;;;;;;;4.43;1.00;;;28.30;69.50;;;;;;4963775;28;20067;-45
2022/08/13 09:43:47;;;;;;;5.05;1.15;;;28.50;68.60;;;;;;4964146;28;20439;-46
2022/08/13 09:46:15;;;;;;;4.30;1.17;;;28.40;68.80;;;;;;4948002;28;20035;-46
2022/08/13 09:48:41;;;;;;;3.42;1.00;;;28.60;68.70;;;;;;4964719;28;20039;-48
2022/08/13 09:51:13;;;;;;;3.63;1.02;;;28.60;68.10;;;;;;4961750;28;20035;-45
2022/08/13 09:53:45;;;;;;;3.00;1.17;;;28.70;67.60;;;;;;4940913;28;20057;-45
2022/08/13 09:56:14;;;;;;;4.03;1.30;;;28.80;68.00;;;;;;4963141;28;20035;-47
2022/08/13 09:58:40;;;;;;;2.28;1.00;;;28.70;67.50;;;;;;4963448;28;20098;-44
2022/08/13 10:01:05;;;;;;;1.75;1.00;;;29.00;67.80;;;;;;4964691;28;20386;-47
2022/08/13 10:03:38;;;;;;;5.85;1.50;;;29.00;67.60;;;;;;4962732;28;20053;-46
2022/08/13 10:06:06;;;;;;;2.08;0.90;;;29.00;66.20;;;;;;4963512;28;20054;-47
2022/08/13 10:08:33;;;;;;;2.35;0.98;;;29.00;65.20;;;;;;4962307;28;20105;-49
2022/08/13 10:10:59;;;;;;;2.20;0.82;;;29.10;65.50;;;;;;4961979;28;20035;-46
2022/08/13 10:13:26;;;;;;;3.88;1.00;;;29.10;65.20;;;;;;4961240;28;20062;-47
2022/08/13 10:15:51;;;;;;;2.63;0.95;;;29.10;65.40;;;;;;4962531;28;20119;-44
2022/08/13 10:18:17;;;;;;;4.20;1.08;;;29.20;65.60;;;;;;4963128;28;20125;-47
2022/08/13 10:20:45;;;;;;;3.05;1.02;;;29.10;65.30;;;;;;4962266;28;20039;-44
2022/08/13 10:23:14;;;;;;;2.28;1.10;;;29.10;64.20;;;;;;4962257;28;20118;-47
2022/08/13 10:25:42;;;;;;;4.03;1.15;;;29.20;64.30;;;;;;4963145;28;20035;-47
2022/08/13 10:28:24;;;;;;;1.67;0.98;;;29.40;65.50;;;;;;4962469;28;20455;-46
2022/08/13 10:30:50;;;;;;;3.53;1.10;;;29.40;65.60;;;;;;4962930;28;20453;-44
2022/08/13 10:33:17;;;;;;;2.35;1.00;;;29.40;65.80;;;;;;4961770;28;20332;-45
2022/08/13 10:35:44;;;;;;;2.53;0.90;;;29.60;65.40;;;;;;4961429;28;20039;-45
2022/08/13 10:38:15;;;;;;;5.38;1.17;;;29.70;65.10;;;;;;4961713;28;20053;-46
2022/08/13 10:40:41;;;;;;;2.88;0.90;;;29.70;63.90;;;;;;4961546;28;20498;-48
2022/08/13 10:43:07;;;;;;;2.47;0.85;;;29.80;62.60;;;;;;4962388;28;20035;-46
2022/08/13 10:45:34;;;;;;;1.60;0.90;;;29.90;63.30;;;;;;4961576;28;20046;-47
2022/08/13 10:48:01;;;;;;;2.45;0.82;;;29.80;63.10;;;;;;4963466;28;20066;-50
2022/08/13 10:50:30;;;;;;;3.22;1.08;;;29.90;64.10;;;;;;4962378;28;20050;-46
2022/08/13 10:52:57;;;;;;;4.75;0.93;;;30.10;63.80;;;;;;4962842;28;20081;-45
2022/08/13 10:55:24;;;;;;;2.97;0.90;;;30.10;63.60;;;;;;4962405;28;20123;-49
2022/08/13 10:57:50;;;;;;;4.78;1.00;;;30.20;63.20;;;;;;4961887;28;20042;-48
2022/08/13 11:00:17;;;;;;;4.28;0.93;;;30.20;63.40;;;;;;4961195;28;20391;-46
2022/08/13 11:02:43;;;;;;;1.67;0.75;;;30.30;62.20;;;;;;4961516;28;20129;-47
2022/08/13 11:05:11;;;;;;;3.38;1.17;;;30.20;61.30;;;;;;4960860;28;20347;-45
2022/08/13 11:07:38;;;;;;;1.45;0.80;;;30.40;61.10;;;;;;4961957;28;20030;-48
2022/08/13 11:10:09;;;;;;;4.43;1.05;;;30.60;61.80;;;;;;4945011;28;20043;-45
2022/08/13 11:12:36;;;;;;;2.28;0.80;;;30.60;61.00;;;;;;4958753;28;20126;-47
2022/08/13 11:15:06;;;;;;;2.17;0.70;;;30.60;60.00;;;;;;4956800;28;20062;-46
2022/08/13 11:17:33;;;;;;;2.00;0.80;;;30.70;59.40;;;;;;4954176;28;20125;-47
2022/08/13 11:20:06;;;;;;;2.15;0.90;;;30.80;60.80;;;;;;4960581;28;20034;-45
2022/08/13 11:22:32;;;;;;;3.47;0.90;;;31.00;59.50;;;;;;4959234;28;20141;-46
2022/08/13 11:24:59;;;;;;;1.42;0.80;;;31.00;59.10;;;;;;4960316;28;20558;-47
2022/08/13 11:27:25;;;;;;;1.38;0.60;;;30.90;59.60;;;;;;4961792;28;20065;-49
2022/08/13 11:29:54;;;;;;;2.00;0.70;;;30.90;60.20;;;;;;4961424;28;20070;-46
2022/08/13 11:32:20;;;;;;;1.88;0.90;;;31.10;59.60;;;;;;4960274;28;20050;-48
2022/08/13 11:34:46;;;;;;;1.33;0.70;;;31.20;57.70;;;;;;4961458;28;20039;-45
2022/08/13 11:37:12;;;;;;;1.48;0.68;;;31.30;57.70;;;;;;4962529;28;20057;-44
2022/08/13 11:39:37;;;;;;;2.45;0.93;;;31.50;58.20;;;;;;4961958;28;20039;-47
2022/08/13 11:42:03;;;;;;;1.30;0.80;;;31.60;59.00;;;;;;4951195;28;20039;-45
2022/08/13 11:44:29;;;;;;;2.63;0.82;;;31.60;59.60;;;;;;4954803;28;20038;-46
2022/08/13 11:46:55;;;;;;;2.85;1.00;;;31.70;58.90;;;;;;4951858;28;20114;-46
2022/08/13 11:49:21;;;;;;;1.70;0.90;;;31.80;58.20;;;;;;4952707;28;20078;-47
2022/08/13 11:51:48;;;;;;;1.50;0.73;;;31.80;58.70;;;;;;4953434;28;20527;-48
2022/08/13 11:54:14;;;;;;;1.30;0.70;;;31.90;58.70;;;;;;4953093;28;20035;-47
2022/08/13 11:56:40;;;;;;;1.00;0.70;;;32.00;57.10;;;;;;4953036;28;20035;-46
2022/08/13 11:59:05;;;;;;;1.35;0.80;;;32.10;58.40;;;;;;4952955;28;20046;-47
2022/08/13 12:01:32;;;;;;;4.38;1.00;;;32.40;57.40;;;;;;4953209;28;20124;-47
2022/08/13 12:03:57;;;;;;;2.05;0.95;;;32.40;57.10;;;;;;4953251;28;20039;-47
2022/08/13 12:06:23;;;;;;;2.97;0.70;;;32.50;57.90;;;;;;4971552;28;20045;-46
2022/08/13 12:08:49;;;;;;;3.47;0.90;;;32.50;56.30;;;;;;4972009;28;20390;-46
2022/08/13 12:11:15;;;;;;;3.03;0.70;;;32.60;57.10;;;;;;4971727;28;20546;-48
2022/08/13 12:13:41;;;;;;;4.07;0.90;;;32.60;57.10;;;;;;4954724;28;20042;-49
2022/08/13 12:16:06;;;;;;;2.88;0.80;;;32.70;55.70;;;;;;4972265;28;20054;-48
2022/08/13 12:18:32;;;;;;;2.17;0.90;;;32.90;57.40;;;;;;4971940;28;20046;-46
2022/08/13 12:20:58;;;;;;;2.15;0.80;;;32.70;56.10;;;;;;4971983;28;20047;-48
2022/08/13 12:23:24;;;;;;;4.68;0.77;;;32.80;56.60;;;;;;4972206;28;20038;-48
2022/08/13 12:25:50;;;;;;;2.05;1.00;;;32.90;56.50;;;;;;4971843;28;20085;-46
2022/08/13 12:28:18;;;;;;;3.00;0.95;;;33.10;56.00;;;;;;4971859;28;20094;-46
2022/08/13 12:30:46;;;;;;;2.35;0.90;;;33.30;56.30;;;;;;4972031;28;20494;-45
2022/08/13 12:33:12;;;;;;;1.33;0.70;;;33.30;54.20;;;;;;4972078;28;20517;-49
2022/08/13 12:35:38;;;;;;;3.53;0.90;;;33.30;53.90;;;;;;4971647;28;20074;-49
2022/08/13 12:38:12;;;;;;;2.88;1.00;;;33.40;55.60;;;;;;4972006;28;20126;-47
2022/08/13 12:40:40;;;;;;;3.20;0.90;;;33.70;55.30;;;;;;4971738;28;20532;-45
2022/08/13 12:43:06;;;;;;;2.88;0.75;;;33.60;56.30;;;;;;4971903;28;20054;-46
2022/08/13 12:45:33;;;;;;;2.03;0.90;;;33.80;57.10;;;;;;4954031;28;20046;-49
2022/08/13 12:48:07;;;;;;;3.08;0.98;;;34.00;56.10;;;;;;4971902;28;20113;-45
2022/08/13 12:50:33;;;;;;;;;;;33.80;54.90;;;;;;4972216;28;20034;-46
2022/08/13 12:52:59;;;;;;;2.33;0.70;;;33.90;56.70;;;;;;4972242;28;20001;-45
2022/08/13 12:55:24;;;;;;;2.28;0.90;;;34.10;55.40;;;;;;4972140;28;20530;-44
2022/08/13 12:57:50;;;;;;;2.83;0.90;;;34.30;55.30;;;;;;4971383;28;20490;-45
2022/08/13 13:00:16;;;;;;;3.67;1.00;;;34.50;54.80;;;;;;4954466;28;20053;-47
2022/08/13 13:02:42;;;;;;;2.13;0.90;;;34.60;54.60;;;;;;4971717;28;20050;-46
2022/08/13 13:05:08;;;;;;;1.48;0.75;;;34.50;55.20;;;;;;4954035;28;20047;-44
2022/08/13 13:07:34;;;;;;;1.70;0.80;;;34.60;55.40;;;;;;4953583;28;20059;-45
2022/08/13 13:09:59;;;;;;;1.30;0.63;;;34.60;53.80;;;;;;4970957;28;20043;-45
2022/08/13 13:12:26;;;;;;;2.05;0.80;;;34.70;54.20;;;;;;4975244;28;20027;-48
2022/08/13 13:14:52;;;;;;;3.33;1.15;;;34.70;54.30;;;;;;4975455;28;20045;-44